createdAt,value
2018-05-29T00:02:04.891Z,95871.02
2018-05-29T00:04:32.407Z,95872.70
2018-05-29T00:06:59.924Z,95869.52
2018-05-29T00:09:27.425Z,95866.94
2018-05-29T00:11:54.938Z,95866.19
2018-05-29T00:14:22.440Z,95866.02
2018-05-29T00:16:49.946Z,95874.12
2018-05-29T00:19:17.450Z,95862.87
2018-05-29T00:21:44.988Z,95858.75
2018-05-29T00:24:12.500Z,95852.48
2018-05-29T00:26:40.005Z,95867.34
2018-05-29T00:29:07.526Z,95859.61
2018-05-29T00:31:35.032Z,95860.34
2018-05-29T00:34:02.545Z,95859.31
2018-05-29T00:36:30.051Z,95846.08
2018-05-29T00:38:57.570Z,95852.36
2018-05-29T00:41:25.080Z,95834.64
2018-05-29T00:43:52.579Z,95854.61
2018-05-29T00:46:20.084Z,95854.06
2018-05-29T00:48:47.580Z,95852.13
2018-05-29T00:51:15.081Z,95845.83
2018-05-29T00:53:42.604Z,95850.61
2018-05-29T00:56:10.108Z,95854.61
2018-05-29T00:58:37.619Z,95853.89
2018-05-29T01:01:05.122Z,95852.13
2018-05-29T01:03:32.650Z,95848.96
2018-05-29T01:06:00.149Z,95839.02
2018-05-29T01:08:27.651Z,95837.50
2018-05-29T01:10:55.158Z,95807.22
2018-05-29T01:13:22.663Z,95811.62
2018-05-29T01:15:50.171Z,95843.62
2018-05-29T01:18:17.684Z,95837.23
2018-05-29T01:20:45.255Z,95837.75
2018-05-29T01:23:12.760Z,95831.81
2018-05-29T01:25:40.281Z,95833.53
2018-05-29T01:28:07.774Z,95838.22
2018-05-29T01:30:35.315Z,95838.36
2018-05-29T01:33:02.890Z,95833.27
2018-05-29T01:35:30.401Z,95830.44
2018-05-29T01:37:57.918Z,95833.77
2018-05-29T01:40:25.424Z,95828.14
2018-05-29T01:42:52.931Z,95830.98
2018-05-29T01:45:20.435Z,95830.19
2018-05-29T01:47:47.952Z,95834.46
2018-05-29T01:50:15.499Z,95832.34
2018-05-29T01:52:43.010Z,95832.47
2018-05-29T01:55:10.520Z,95836.98
2018-05-29T01:57:38.079Z,95839.75
2018-05-29T02:00:06.495Z,95810.25
2018-05-29T02:02:34.011Z,95835.64
2018-05-29T02:05:01.556Z,95842.78
2018-05-29T02:07:29.058Z,95849.85
2018-05-29T02:09:56.559Z,95845.86
2018-05-29T02:12:24.094Z,95847.31
2018-05-29T02:14:51.598Z,95841.95
2018-05-29T02:17:19.111Z,95840.63
2018-05-29T02:19:46.608Z,95841.63
2018-05-29T02:22:31.700Z,95841.14
2018-05-29T02:24:59.271Z,95854.45
2018-05-29T02:27:26.784Z,95847.59
2018-05-29T02:29:54.295Z,95853.23
2018-05-29T02:32:21.796Z,95855.66
2018-05-29T02:34:49.300Z,95857.86
2018-05-29T02:37:16.794Z,95868.08
2018-05-29T02:39:44.305Z,95866.40
2018-05-29T02:42:11.812Z,95867.34
2018-05-29T02:44:39.311Z,95880.19
2018-05-29T02:47:06.812Z,95881.23
2018-05-29T02:49:34.312Z,95886.38
2018-05-29T02:52:01.811Z,95896.54
2018-05-29T02:54:29.320Z,95884.22
2018-05-29T02:56:57.714Z,95884.79
2018-05-29T02:59:25.234Z,95900.52
2018-05-29T03:01:52.800Z,95889.77
2018-05-29T03:04:20.318Z,95890.59
2018-05-29T03:06:47.828Z,95885.46
2018-05-29T03:09:15.328Z,95889.31
2018-05-29T03:11:42.848Z,95886.77
2018-05-29T03:14:10.399Z,95890.68
2018-05-29T03:16:37.917Z,95893.84
2018-05-29T03:19:05.466Z,95892.21
2018-05-29T03:21:32.963Z,95890.66
2018-05-29T03:24:00.472Z,95892.61
2018-05-29T03:26:28.011Z,95891.52
2018-05-29T03:28:55.520Z,95899.40
2018-05-29T03:31:23.029Z,95909.22
2018-05-29T03:33:50.584Z,95900.45
2018-05-29T03:36:18.115Z,95901.11
2018-05-29T03:38:45.622Z,95905.06
2018-05-29T03:41:13.128Z,95908.05
2018-05-29T03:43:40.627Z,95908.56
2018-05-29T03:46:08.135Z,95912.11
2018-05-29T03:48:35.629Z,95909.89
2018-05-29T03:51:03.144Z,95903.76
2018-05-29T03:53:30.679Z,95907.31
2018-05-29T03:55:58.200Z,95920.73
2018-05-29T03:58:25.711Z,95901.98
2018-05-29T04:00:53.215Z,95912.70
2018-05-29T04:03:20.724Z,95907.55
2018-05-29T04:05:48.285Z,95907.52
2018-05-29T04:08:15.795Z,95912.91
2018-05-29T04:10:43.301Z,95908.45
2018-05-29T04:13:10.851Z,95902.80
2018-05-29T04:15:38.363Z,95914.59
2018-05-29T04:18:05.893Z,95908.75
2018-05-29T04:20:33.405Z,95915.95
2018-05-29T04:23:00.902Z,95901.84
2018-05-29T04:25:28.407Z,95910.94
2018-05-29T04:27:56.194Z,95898.95
2018-05-29T04:30:23.714Z,95907.72
2018-05-29T04:32:51.215Z,95912.37
2018-05-29T04:35:18.728Z,95907.22
2018-05-29T04:37:46.291Z,95911.47
2018-05-29T04:40:13.831Z,95916.78
2018-05-29T04:42:41.344Z,95918.08
2018-05-29T04:45:08.855Z,95910.05
2018-05-29T04:47:36.375Z,95910.88
2018-05-29T04:50:03.891Z,95915.81
2018-05-29T04:52:31.405Z,95912.53
2018-05-29T04:54:58.965Z,95914.59
2018-05-29T04:57:26.479Z,95918.06
2018-05-29T04:59:53.995Z,95903.83
2018-05-29T05:02:21.503Z,95910.48
2018-05-29T05:04:49.043Z,95923.20
2018-05-29T05:07:16.552Z,95918.55
2018-05-29T05:09:44.121Z,95916.55
2018-05-29T05:12:11.667Z,95913.64
2018-05-29T05:14:39.171Z,95906.39
2018-05-29T05:17:06.695Z,95908.89
2018-05-29T05:19:34.199Z,95905.08
2018-05-29T05:22:01.714Z,95908.80
2018-05-29T05:24:29.210Z,95907.73
2018-05-29T05:26:56.725Z,95911.77
2018-05-29T05:29:24.229Z,95913.79
2018-05-29T05:31:51.744Z,95908.80
2018-05-29T05:34:19.243Z,95905.72
2018-05-29T05:36:46.742Z,95907.63
2018-05-29T05:39:14.261Z,95908.47
2018-05-29T05:41:41.771Z,95903.62
2018-05-29T05:44:09.276Z,95908.48
2018-05-29T05:46:37.570Z,95898.87
2018-05-29T05:49:05.123Z,95904.36
2018-05-29T05:51:32.642Z,95900.63
2018-05-29T05:54:00.193Z,95900.00
2018-05-29T05:56:27.703Z,95894.80
2018-05-29T05:58:55.220Z,95899.16
2018-05-29T06:01:22.730Z,95903.02
2018-05-29T06:03:50.235Z,95900.91
2018-05-29T06:06:17.749Z,95900.25
2018-05-29T06:08:45.256Z,95904.96
2018-05-29T06:11:12.972Z,95902.10
2018-05-29T06:13:40.495Z,95895.99
2018-05-29T06:16:08.011Z,95907.76
2018-05-29T06:18:35.520Z,95906.23
2018-05-29T06:21:03.035Z,95900.47
2018-05-29T06:23:30.538Z,95898.58
2018-05-29T06:25:58.086Z,95891.16
2018-05-29T06:28:26.696Z,95897.00
2018-05-29T06:30:54.240Z,95885.08
2018-05-29T06:33:21.791Z,95889.95
2018-05-29T06:35:49.317Z,95890.23
2018-05-29T06:38:16.915Z,95881.71
2018-05-29T06:40:44.445Z,95889.42
2018-05-29T06:43:11.959Z,95892.44
2018-05-29T06:45:39.504Z,95902.95
2018-05-29T06:48:07.125Z,95889.20
2018-05-29T06:50:34.673Z,95888.59
2018-05-29T06:53:02.219Z,95886.06
2018-05-29T06:55:29.748Z,95882.08
2018-05-29T06:57:57.570Z,95884.43
2018-05-29T07:00:25.552Z,95880.11
2018-05-29T07:02:53.100Z,95880.51
2018-05-29T07:05:20.865Z,95890.17
2018-05-29T07:07:48.574Z,95893.63
2018-05-29T07:10:16.113Z,95877.90
2018-05-29T07:12:43.645Z,95891.95
2018-05-29T07:15:11.202Z,95887.17
2018-05-29T07:17:38.711Z,95882.72
2018-05-29T07:20:06.240Z,95886.22
2018-05-29T07:22:34.198Z,95878.53
2018-05-29T07:25:01.742Z,95884.91
2018-05-29T07:27:29.314Z,95887.55
2018-05-29T07:29:56.836Z,95871.88
2018-05-29T07:32:24.370Z,95892.67
2018-05-29T07:34:51.915Z,95873.34
2018-05-29T07:37:19.429Z,95881.44
2018-05-29T07:39:46.960Z,95849.90
2018-05-29T07:42:14.563Z,95865.63
2018-05-29T07:44:42.159Z,95864.47
2018-05-29T07:47:09.702Z,95868.11
2018-05-29T07:49:37.238Z,95866.75
2018-05-29T07:52:04.816Z,95873.58
2018-05-29T07:54:32.364Z,95861.79
2018-05-29T07:56:59.908Z,95859.94
2018-05-29T07:59:27.419Z,95855.64
2018-05-29T08:01:54.927Z,95846.87
2018-05-29T08:04:22.472Z,95855.05
2018-05-29T08:06:50.025Z,95855.19
2018-05-29T08:09:17.574Z,95854.04
2018-05-29T08:11:45.088Z,95843.86
2018-05-29T08:14:12.596Z,95844.95
2018-05-29T08:16:40.213Z,95844.12
2018-05-29T08:19:07.850Z,95841.14
2018-05-29T08:21:35.368Z,95836.67
2018-05-29T08:24:02.879Z,95841.09
2018-05-29T08:26:30.498Z,95837.33
2018-05-29T08:28:58.024Z,95853.04
2018-05-29T08:31:25.634Z,95844.61
2018-05-29T08:33:53.186Z,95838.08
2018-05-29T08:36:20.869Z,95840.88
2018-05-29T08:38:48.446Z,95840.30
2018-05-29T08:41:16.096Z,95844.16
2018-05-29T08:43:43.627Z,95849.74
2018-05-29T08:46:11.139Z,95840.25
2018-05-29T08:48:38.648Z,95826.82
2018-05-29T08:51:06.273Z,95821.69
2018-05-29T08:53:33.815Z,95820.58
2018-05-29T08:56:01.430Z,95835.69
2018-05-29T08:58:29.058Z,95830.44
2018-05-29T09:00:57.006Z,95820.77
2018-05-29T09:03:24.504Z,95818.47
2018-05-29T09:05:52.114Z,95824.91
2018-05-29T09:08:19.748Z,95823.50
2018-05-29T09:10:47.432Z,95826.42
2018-05-29T09:13:14.961Z,95827.14
2018-05-29T09:15:42.566Z,95818.03
2018-05-29T09:18:10.189Z,95817.18
2018-05-29T09:20:37.876Z,95809.39
2018-05-29T09:23:05.514Z,95810.77
2018-05-29T09:25:33.083Z,95806.70
2018-05-29T09:28:00.698Z,95804.48
2018-05-29T09:30:28.265Z,95809.64
2018-05-29T09:32:55.928Z,95799.14
2018-05-29T09:35:23.609Z,95809.52
2018-05-29T09:37:51.133Z,95806.45
2018-05-29T09:40:18.782Z,95798.55
2018-05-29T09:42:46.429Z,95800.50
2018-05-29T09:45:14.066Z,95796.46
2018-05-29T09:47:41.601Z,95787.25
2018-05-29T09:50:09.116Z,95787.24
2018-05-29T09:52:36.630Z,95794.66
2018-05-29T09:55:04.240Z,95779.82
2018-05-29T09:57:31.865Z,95783.86
2018-05-29T09:59:59.545Z,95781.80
2018-05-29T10:02:27.215Z,95787.33
2018-05-29T10:04:54.752Z,95764.47
2018-05-29T10:07:22.358Z,95785.92
2018-05-29T10:09:49.980Z,95793.95
2018-05-29T10:12:17.507Z,95772.50
2018-05-29T10:14:45.120Z,95763.23
2018-05-29T10:17:12.657Z,95780.64
2018-05-29T10:19:40.261Z,95764.50
2018-05-29T10:22:07.799Z,95769.52
2018-05-29T10:24:35.327Z,95778.00
2018-05-29T10:27:02.825Z,95772.30
2018-05-29T10:29:30.433Z,95768.64
2018-05-29T10:31:58.058Z,95765.05
2018-05-29T10:34:25.587Z,95761.11
2018-05-29T10:36:53.108Z,95769.05
2018-05-29T10:39:20.623Z,95763.91
2018-05-29T10:41:48.132Z,95763.67
2018-05-29T10:44:15.638Z,95747.05
2018-05-29T10:46:43.254Z,95746.64
2018-05-29T10:49:10.912Z,95749.55
2018-05-29T10:51:38.545Z,95753.70
2018-05-29T10:54:06.177Z,95752.28
2018-05-29T10:56:33.794Z,95737.08
2018-05-29T10:59:01.423Z,95740.41
2018-05-29T11:01:28.969Z,95738.42
2018-05-29T11:03:56.577Z,95721.70
2018-05-29T11:06:24.212Z,95719.09
2018-05-29T11:08:51.739Z,95730.69
2018-05-29T11:11:19.255Z,95722.86
2018-05-29T11:13:46.758Z,95640.73
2018-05-29T11:16:14.265Z,95715.86
2018-05-29T11:18:41.806Z,95716.39
2018-05-29T11:21:09.310Z,95707.11
2018-05-29T11:23:37.580Z,95712.71
2018-05-29T11:26:05.085Z,95706.85
2018-05-29T11:28:32.607Z,95714.72
2018-05-29T11:31:00.112Z,95720.70
2018-05-29T11:33:27.617Z,95726.84
2018-05-29T11:35:55.124Z,95719.77
2018-05-29T11:38:22.613Z,95707.66
2018-05-29T11:40:50.115Z,95717.87
2018-05-29T11:43:17.635Z,95720.78
2018-05-29T11:45:45.169Z,95724.84
2018-05-29T11:48:12.726Z,95720.34
2018-05-29T11:50:40.239Z,95717.67
2018-05-29T11:53:07.823Z,95719.08
2018-05-29T11:55:35.328Z,95722.47
2018-05-29T11:58:02.839Z,95735.89
2018-05-29T12:00:30.369Z,95728.52
2018-05-29T12:02:57.851Z,95722.11
2018-05-29T12:05:25.355Z,95715.97
2018-05-29T12:07:52.864Z,95722.59
2018-05-29T12:10:20.370Z,95720.62
2018-05-29T12:12:47.871Z,95703.36
2018-05-29T12:15:15.390Z,95691.16
2018-05-29T12:17:42.888Z,95722.97
2018-05-29T12:20:10.387Z,95718.20
2018-05-29T12:22:37.892Z,95724.07
2018-05-29T12:25:05.409Z,95723.55
2018-05-29T12:27:32.919Z,95723.16
2018-05-29T12:30:00.436Z,95728.81
2018-05-29T12:32:27.956Z,95705.84
2018-05-29T12:34:55.479Z,95723.09
2018-05-29T12:37:22.978Z,95721.56
2018-05-29T12:39:50.532Z,95711.66
2018-05-29T12:42:18.041Z,95710.63
2018-05-29T12:44:45.566Z,95703.27
2018-05-29T12:47:13.061Z,95706.91
2018-05-29T12:49:40.555Z,95703.50
2018-05-29T12:52:08.048Z,95698.81
2018-05-29T12:54:35.546Z,95693.18
2018-05-29T12:57:03.057Z,95696.03
2018-05-29T12:59:30.555Z,95689.47
2018-05-29T13:01:58.051Z,95689.28
2018-05-29T13:04:25.605Z,95683.77
2018-05-29T13:06:53.167Z,95679.83
2018-05-29T13:09:20.671Z,95676.59
2018-05-29T13:11:48.170Z,95680.13
2018-05-29T13:14:15.684Z,95658.34
2018-05-29T13:16:43.252Z,95675.04
2018-05-29T13:19:10.809Z,95681.19
2018-05-29T13:21:38.378Z,95672.03
2018-05-29T13:24:05.886Z,95672.97
2018-05-29T13:26:33.397Z,95678.15
2018-05-29T13:29:00.912Z,95680.27
2018-05-29T13:31:28.410Z,95682.88
2018-05-29T13:33:55.915Z,95670.34
2018-05-29T13:36:23.406Z,95659.45
2018-05-29T13:38:50.912Z,95661.61
2018-05-29T13:41:18.639Z,95662.13
2018-05-29T13:43:46.148Z,95664.34
2018-05-29T13:46:13.656Z,95655.20
2018-05-29T13:48:41.170Z,95667.66
2018-05-29T13:51:08.674Z,95661.27
2018-05-29T13:53:36.177Z,95660.88
2018-05-29T13:56:03.693Z,95645.95
2018-05-29T13:58:31.208Z,95654.95
2018-05-29T14:00:58.732Z,95653.33
2018-05-29T14:03:26.269Z,95660.10
2018-05-29T14:05:53.810Z,95652.63
2018-05-29T14:08:21.308Z,95649.91
2018-05-29T14:10:48.823Z,95653.45
2018-05-29T14:13:16.384Z,95656.42
2018-05-29T14:15:43.890Z,95658.69
2018-05-29T14:18:11.400Z,95658.06
2018-05-29T14:20:38.899Z,95657.16
2018-05-29T14:23:06.410Z,95667.39
2018-05-29T14:25:33.917Z,95655.06
2018-05-29T14:28:01.410Z,95656.28
2018-05-29T14:30:28.970Z,95646.59
2018-05-29T14:32:56.472Z,95651.09
2018-05-29T14:35:23.992Z,95650.88
2018-05-29T14:37:51.499Z,95659.55
2018-05-29T14:40:19.003Z,95657.21
2018-05-29T14:42:46.530Z,95628.72
2018-05-29T14:45:14.176Z,95643.05
2018-05-29T14:47:41.898Z,95641.67
2018-05-29T14:50:09.404Z,95634.11
2018-05-29T14:52:36.894Z,95636.47
2018-05-29T14:55:04.398Z,95633.03
2018-05-29T14:57:31.946Z,95630.20
2018-05-29T14:59:59.583Z,95613.84
2018-05-29T15:02:27.084Z,95626.00
2018-05-29T15:04:54.599Z,95623.66
2018-05-29T15:07:22.106Z,95626.55
2018-05-29T15:09:49.626Z,95612.33
2018-05-29T15:12:17.181Z,95614.53
2018-05-29T15:14:44.709Z,95621.73
2018-05-29T15:17:12.300Z,95625.30
2018-05-29T15:19:39.824Z,95620.77
2018-05-29T15:22:07.317Z,95611.11
2018-05-29T15:24:34.825Z,95565.90
2018-05-29T15:27:02.341Z,95606.73
2018-05-29T15:29:29.840Z,95613.11
2018-05-29T15:31:57.347Z,95608.08
2018-05-29T15:34:24.882Z,95608.50
2018-05-29T15:36:52.469Z,95603.18
2018-05-29T15:39:20.026Z,95603.37
2018-05-29T15:41:47.586Z,95593.39
2018-05-29T15:44:15.087Z,95595.39
2018-05-29T15:46:42.612Z,95584.28
2018-05-29T15:49:10.164Z,95588.16
2018-05-29T15:51:37.670Z,95594.55
2018-05-29T15:54:05.188Z,95588.27
2018-05-29T15:56:32.689Z,95584.05
2018-05-29T15:59:00.179Z,95581.86
2018-05-29T16:01:27.693Z,95582.20
2018-05-29T16:03:55.214Z,95594.05
2018-05-29T16:06:22.719Z,95595.44
2018-05-29T16:08:50.225Z,95583.11
2018-05-29T16:11:18.069Z,95580.67
2018-05-29T16:13:45.547Z,95580.97
2018-05-29T16:16:13.044Z,95584.91
2018-05-29T16:18:40.549Z,95590.08
2018-05-29T16:21:08.056Z,95586.33
2018-05-29T16:23:35.561Z,95586.06
2018-05-29T16:26:03.115Z,95586.16
2018-05-29T16:28:30.632Z,95591.75
2018-05-29T16:30:58.138Z,95591.60
2018-05-29T16:33:25.650Z,95592.41
2018-05-29T16:35:53.169Z,95587.10
2018-05-29T16:38:20.679Z,95592.23
2018-05-29T16:40:48.243Z,95584.17
2018-05-29T16:43:15.756Z,95584.03
2018-05-29T16:45:43.304Z,95583.67
2018-05-29T16:48:10.807Z,95584.91
2018-05-29T16:50:38.339Z,95580.52
2018-05-29T16:53:05.859Z,95585.85
2018-05-29T16:55:33.362Z,95581.88
2018-05-29T16:58:00.863Z,95589.63
2018-05-29T17:00:28.408Z,95586.69
2018-05-29T17:02:55.909Z,95583.75
2018-05-29T17:05:23.430Z,95584.17
2018-05-29T17:07:50.994Z,95577.48
2018-05-29T17:10:18.502Z,95586.73
2018-05-29T17:12:45.997Z,95580.47
2018-05-29T17:15:13.606Z,95587.94
2018-05-29T17:17:41.069Z,95584.64
2018-05-29T17:20:08.575Z,95588.01
2018-05-29T17:22:36.101Z,95585.84
2018-05-29T17:25:03.613Z,95589.22
2018-05-29T17:27:31.123Z,95590.99
2018-05-29T17:29:58.662Z,95589.67
2018-05-29T17:32:26.152Z,95586.34
2018-05-29T17:34:53.661Z,95589.90
2018-05-29T17:37:21.856Z,95586.97
2018-05-29T17:39:49.367Z,95591.30
2018-05-29T17:42:16.884Z,95593.67
2018-05-29T17:44:44.418Z,95593.48
2018-05-29T17:47:11.919Z,95600.37
2018-05-29T17:49:39.431Z,95599.77
2018-05-29T17:52:06.935Z,95598.20
2018-05-29T17:54:34.434Z,95602.14
2018-05-29T17:57:02.043Z,95608.61
2018-05-29T17:59:29.543Z,95599.59
2018-05-29T18:01:57.060Z,95623.49
2018-05-29T18:04:24.590Z,95621.16
2018-05-29T18:06:52.153Z,95627.81
2018-05-29T18:09:19.671Z,95629.17
2018-05-29T18:11:47.182Z,95625.27
2018-05-29T18:14:14.688Z,95626.42
2018-05-29T18:16:42.189Z,95633.89
2018-05-29T18:19:09.730Z,95625.45
2018-05-29T18:21:37.258Z,95631.52
2018-05-29T18:24:04.756Z,95638.77
2018-05-29T18:26:32.253Z,95638.20
2018-05-29T18:28:59.755Z,95644.84
2018-05-29T18:31:27.272Z,95637.02
2018-05-29T18:33:54.785Z,95653.48
2018-05-29T18:36:22.307Z,95662.06
2018-05-29T18:38:50.054Z,95662.83
2018-05-29T18:41:17.560Z,95665.38
2018-05-29T18:43:45.084Z,95669.16
2018-05-29T18:46:12.608Z,95658.11
2018-05-29T18:48:40.120Z,95675.78
2018-05-29T18:51:07.741Z,95672.64
2018-05-29T18:53:35.239Z,95678.51
2018-05-29T18:56:02.805Z,95682.81
2018-05-29T18:58:30.396Z,95686.11
2018-05-29T19:00:57.938Z,95687.07
2018-05-29T19:03:25.470Z,95685.49
2018-05-29T19:05:53.843Z,95691.95
2018-05-29T19:08:21.423Z,95697.05
2018-05-29T19:10:48.964Z,95698.20
2018-05-29T19:13:16.478Z,95696.22
2018-05-29T19:15:44.030Z,95673.05
2018-05-29T19:18:11.544Z,95685.41
2018-05-29T19:20:39.043Z,95694.45
2018-05-29T19:23:06.674Z,95682.67
2018-05-29T19:25:34.190Z,95701.70
2018-05-29T19:28:01.747Z,95700.36
2018-05-29T19:30:29.337Z,95678.72
2018-05-29T19:32:56.855Z,95707.16
2018-05-29T19:35:24.352Z,95706.02
2018-05-29T19:37:51.877Z,95696.85
2018-05-29T19:40:19.384Z,95706.48
2018-05-29T19:42:46.894Z,95710.80
2018-05-29T19:45:14.415Z,95710.19
2018-05-29T19:47:41.989Z,95714.16
2018-05-29T19:50:09.503Z,95718.27
2018-05-29T19:52:37.027Z,95720.00
2018-05-29T19:55:04.537Z,95717.43
2018-05-29T19:57:32.031Z,95708.16
2018-05-29T19:59:59.540Z,95711.64
2018-05-29T20:02:27.044Z,95712.16
2018-05-29T20:04:54.571Z,95720.38
2018-05-29T20:07:22.117Z,95724.08
2018-05-29T20:09:49.631Z,95718.56
2018-05-29T20:12:17.271Z,95721.82
2018-05-29T20:14:44.711Z,95719.41
2018-05-29T20:17:12.233Z,95715.71
2018-05-29T20:19:39.731Z,95717.44
2018-05-29T20:22:08.203Z,95725.41
2018-05-29T20:24:35.720Z,95718.17
2018-05-29T20:27:03.309Z,95710.52
2018-05-29T20:29:31.340Z,95716.73
2018-05-29T20:31:58.860Z,95712.31
2018-05-29T20:34:26.356Z,95712.48
2018-05-29T20:36:54.556Z,95710.14
2018-05-29T20:39:22.116Z,95714.97
2018-05-29T20:41:49.614Z,95712.23
2018-05-29T20:44:17.205Z,95713.39
2018-05-29T20:46:44.720Z,95703.39
2018-05-29T20:49:12.282Z,95718.52
2018-05-29T20:51:39.801Z,95715.02
2018-05-29T20:54:07.348Z,95713.66
2018-05-29T20:56:34.878Z,95706.78
2018-05-29T20:59:02.431Z,95717.30
2018-05-29T21:01:29.939Z,95684.18
2018-05-29T21:03:57.447Z,95695.13
2018-05-29T21:06:24.956Z,95700.44
2018-05-29T21:08:52.515Z,95704.70
2018-05-29T21:11:20.010Z,95698.61
2018-05-29T21:13:47.523Z,95696.44
2018-05-29T21:16:15.091Z,95696.20
2018-05-29T21:18:42.602Z,95685.58
2018-05-29T21:21:10.845Z,95695.17
2018-05-29T21:23:38.366Z,95690.83
2018-05-29T21:26:05.880Z,95697.59
2018-05-29T21:28:33.435Z,95697.75
2018-05-29T21:31:00.987Z,95706.28
2018-05-29T21:33:28.487Z,95697.29
2018-05-29T21:35:56.033Z,95699.03
2018-05-29T21:38:23.581Z,95700.24
2018-05-29T21:40:51.089Z,95699.58
2018-05-29T21:43:18.654Z,95699.82
2018-05-29T21:45:46.172Z,95693.38
2018-05-29T21:48:13.691Z,95685.97
2018-05-29T21:50:41.211Z,95700.57
2018-05-29T21:53:08.733Z,95687.69
2018-05-29T21:55:36.278Z,95686.15
2018-05-29T21:58:03.833Z,95685.30
2018-05-29T22:00:31.346Z,95682.14
2018-05-29T22:02:58.853Z,95682.25
2018-05-29T22:05:26.371Z,95685.77
2018-05-29T22:07:53.874Z,95691.00
2018-05-29T22:10:21.378Z,95683.91
2018-05-29T22:12:48.883Z,95678.48
2018-05-29T22:15:18.841Z,95677.38
2018-05-29T22:17:50.544Z,95673.86
2018-05-29T22:20:18.078Z,95678.55
2018-05-29T22:22:45.622Z,95683.77
2018-05-29T22:25:13.130Z,95664.13
2018-05-29T22:27:40.679Z,95679.97
2018-05-29T22:30:08.254Z,95678.60
2018-05-29T22:32:35.767Z,95674.63
2018-05-29T22:35:03.311Z,95675.03
2018-05-29T22:37:30.848Z,95673.32
2018-05-29T22:39:58.375Z,95671.00
2018-05-29T22:42:25.946Z,95673.52
2018-05-29T22:44:53.447Z,95664.87
2018-05-29T22:47:20.954Z,95661.58
2018-05-29T22:49:48.504Z,95657.47
2018-05-29T22:52:16.009Z,95656.36
2018-05-29T22:54:43.575Z,95655.02
2018-05-29T22:57:11.133Z,95654.55
2018-05-29T22:59:38.631Z,95652.60
2018-05-29T23:02:06.126Z,95654.53
2018-05-29T23:04:33.627Z,95651.84
2018-05-29T23:07:01.117Z,95647.85
2018-05-29T23:09:28.622Z,95647.68
2018-05-29T23:11:56.139Z,95650.88
2018-05-29T23:14:23.652Z,95643.52
2018-05-29T23:16:51.151Z,95654.00
2018-05-29T23:19:18.654Z,95647.80
2018-05-29T23:21:46.151Z,95645.36
2018-05-29T23:24:13.668Z,95626.67
2018-05-29T23:26:41.170Z,95651.89
2018-05-29T23:29:08.673Z,95652.97
2018-05-29T23:31:36.176Z,95639.73
2018-05-29T23:34:03.675Z,95640.13
2018-05-29T23:36:31.188Z,95610.30
2018-05-29T23:38:58.694Z,95645.90
2018-05-29T23:41:26.199Z,95626.31
2018-05-29T23:43:54.571Z,95612.40
2018-05-29T23:46:22.074Z,95635.67
2018-05-29T23:48:49.570Z,95641.60
2018-05-29T23:51:17.064Z,95630.12
2018-05-29T23:53:44.569Z,95639.88
2018-05-29T23:56:12.143Z,95637.55
2018-05-29T23:58:39.655Z,95639.41
